Terminal Aerodrome Forecast
Issued by NWS

Home | Current Version | Previous Version | Text Only | Print | Product List | Glossary On
Versions: 1 2 3 4 5 6 7 8 9 10 11 12 13 14 15 16 17 18 19 20 21 22 23
000
FTUS45 KTFX 270700 AAA
TAFCTB
TAF AMD
KCTB 270737Z 2708/2806 15010KT 1/4SM FZFG VV001
      TEMPO 2708/2711 4SM BR SCT002 BKN100
     FM271100 18009KT P6SM SCT060 BKN100 WS020/26030KT
     FM271300 24018KT P6SM SCT060 BKN100
     FM271700 26028G38KT P6SM SCT100 BKN200
     FM280000 26032G42KT P6SM SCT100=

USA.gov is the U.S. government's official web portal to all federal, state and local government web resources and services.